Time;durP1;ratioP1;P1;durP2;ratioP2;P2;SDS_P1;SDS_P2;PMS_P1;PMS_P2;Temp;Humidity;BMP_temperature;BMP_pressure;BME280_temperature;BME280_humidity;BME280_pressure;Samples;Min_cycle;Max_cycle;Signal;HPM_P1;HPM_P2
2021/07/15 00:01:53;;;;;;;0.83;0.50;;;;;;;;;;5037237;28;20498;-74
2021/07/15 00:04:19;;;;;;;0.93;0.47;;;;;;;;;;5036796;28;20029;-73
2021/07/15 00:06:45;;;;;;;1.13;0.40;;;;;;;;;;5045369;28;20052;-74
2021/07/15 00:09:12;;;;;;;1.17;0.40;;;;;;;;;;5040412;28;20095;-74
2021/07/15 00:11:39;;;;;;;0.52;0.40;;;;;;;;;;5040420;28;20732;-76
2021/07/15 00:14:05;;;;;;;;;;;;;;;;;;5035489;28;20021;-74
2021/07/15 00:16:31;;;;;;;1.48;0.50;;;;;;;;;;5039896;28;21593;-74
2021/07/15 00:18:57;;;;;;;2.97;0.50;;;;;;;;;;5036390;28;20478;-74
2021/07/15 00:21:24;;;;;;;3.57;0.50;;;;;;;;;;5036245;28;20608;-75
2021/07/15 00:23:51;;;;;;;0.93;0.50;;;;;;;;;;5035516;28;20041;-77
2021/07/15 00:26:18;;;;;;;3.00;0.60;;;;;;;;;;5037294;28;20120;-75
2021/07/15 00:28:45;;;;;;;1.52;0.60;;;;;;;;;;5038199;28;20121;-76
2021/07/15 00:31:11;;;;;;;5.85;0.73;;;;;;;;;;5042775;28;20033;-75
2021/07/15 00:33:37;;;;;;;2.58;0.60;;;;;;;;;;5040476;28;20043;-75
2021/07/15 00:36:03;;;;;;;0.60;0.23;;;;;;;;;;5041186;28;20099;-76
2021/07/15 00:38:30;;;;;;;2.30;0.50;;;;;;;;;;5041582;28;20022;-73
2021/07/15 00:40:57;;;;;;;0.57;0.30;;;;;;;;;;5039384;28;20043;-76
2021/07/15 00:43:24;;;;;;;1.40;0.50;;;;;;;;;;5037579;28;20049;-76
2021/07/15 00:45:50;;;;;;;2.27;0.50;;;;;;;;;;5038801;28;20033;-75
2021/07/15 00:48:19;;;;;;;0.80;0.35;;;;;;;;;;5044878;28;20033;-75
2021/07/15 00:50:45;;;;;;;1.30;0.40;;;;;;;;;;5042950;28;20037;-76
2021/07/15 00:53:11;;;;;;;0.80;0.47;;;;;;;;;;5041867;28;20021;-76
2021/07/15 00:55:42;;;;;;;1.10;0.30;;;;;;;;;;5039661;28;20025;-76
2021/07/15 00:58:10;;;;;;;2.90;0.50;;;;;;;;;;5042861;28;20564;-75
2021/07/15 01:00:37;;;;;;;2.33;0.40;;;;;;;;;;5045909;28;20029;-75
2021/07/15 01:03:04;;;;;;;0.85;0.22;;;;;;;;;;5039882;28;20025;-75
2021/07/15 01:05:32;;;;;;;0.57;0.40;;;;;;;;;;5042074;28;20790;-76
2021/07/15 01:07:58;;;;;;;3.25;0.70;;;;;;;;;;5039448;28;20021;-79
2021/07/15 01:10:26;;;;;;;0.30;0.30;;;;;;;;;;5037805;28;20635;-75
2021/07/15 01:13:04;;;;;;;3.90;0.50;;;;;;;;;;5040708;28;20025;-76
2021/07/15 01:15:38;;;;;;;0.40;0.30;;;;;;;;;;5036435;28;20029;-75
2021/07/15 01:18:09;;;;;;;1.13;0.32;;;;;;;;;;5035598;28;20056;-76
2021/07/15 01:20:41;;;;;;;0.50;0.30;;;;;;;;;;5041186;28;20024;-75
2021/07/15 01:23:15;;;;;;;1.92;0.30;;;;;;;;;;5040805;28;20056;-76
2021/07/15 01:25:54;;;;;;;1.45;0.40;;;;;;;;;;5042152;28;20080;-77
2021/07/15 01:28:52;;;;;;;0.40;0.40;;;;;;;;;;5042476;28;20477;-74
2021/07/15 01:31:18;;;;;;;0.40;0.30;;;;;;;;;;5042343;28;20043;-73
2021/07/15 01:33:46;;;;;;;1.85;0.50;;;;;;;;;;5041353;28;20056;-74
2021/07/15 01:36:13;;;;;;;2.63;0.38;;;;;;;;;;5041630;28;20483;-75
2021/07/15 01:38:42;;;;;;;1.38;0.40;;;;;;;;;;5043140;28;20051;-74
2021/07/15 01:41:15;;;;;;;1.42;0.40;;;;;;;;;;5041119;28;20124;-76
2021/07/15 01:43:48;;;;;;;1.02;0.32;;;;;;;;;;5041493;28;20044;-75
2021/07/15 01:46:15;;;;;;;0.55;0.30;;;;;;;;;;5040753;28;20075;-75
2021/07/15 01:48:42;;;;;;;2.00;0.40;;;;;;;;;;5045075;28;20120;-76
2021/07/15 01:51:08;;;;;;;0.30;0.30;;;;;;;;;;5038430;28;20033;-74
2021/07/15 01:53:34;;;;;;;2.40;0.38;;;;;;;;;;5045700;28;20033;-74
2021/07/15 01:56:00;;;;;;;;;;;;;;;;;;4691893;28;9999838;-75
2021/07/15 01:58:28;;;;;;;0.73;0.32;;;;;;;;;;5057936;28;20020;-74
2021/07/15 02:00:55;;;;;;;0.95;0.35;;;;;;;;;;5053472;28;20076;-74
2021/07/15 02:03:22;;;;;;;1.75;0.40;;;;;;;;;;5065571;28;20393;-74
2021/07/15 02:05:48;;;;;;;1.88;0.40;;;;;;;;;;5058962;28;20502;-74
2021/07/15 02:08:15;;;;;;;3.00;0.57;;;;;;;;;;5058233;28;20041;-74
2021/07/15 02:10:42;;;;;;;3.35;0.50;;;;;;;;;;5056228;28;20036;-75
2021/07/15 02:13:09;;;;;;;2.30;0.70;;;;;;;;;;5063406;28;20032;-74
2021/07/15 02:15:36;;;;;;;3.58;0.38;;;;;;;;;;5070049;28;20028;-75
2021/07/15 02:18:02;;;;;;;1.33;0.30;;;;;;;;;;5054648;28;20107;-76
2021/07/15 02:20:29;;;;;;;2.63;0.45;;;;;;;;;;5061072;28;20027;-75
2021/07/15 02:22:55;;;;;;;1.25;0.40;;;;;;;;;;5056367;28;20025;-75
2021/07/15 02:25:22;;;;;;;2.92;0.40;;;;;;;;;;5063850;28;20071;-78
2021/07/15 02:27:48;;;;;;;1.38;0.40;;;;;;;;;;5065276;28;20056;-75
2021/07/15 02:30:16;;;;;;;3.70;0.40;;;;;;;;;;5062205;28;20066;-75
2021/07/15 02:32:45;;;;;;;2.05;0.47;;;;;;;;;;5048215;28;20045;-75
2021/07/15 02:35:12;;;;;;;4.07;0.38;;;;;;;;;;5068165;28;20096;-75
2021/07/15 02:37:38;;;;;;;;;;;;;;;;;;5063579;28;20025;-76
2021/07/15 02:40:08;;;;;;;5.18;0.30;;;;;;;;;;5066031;28;19919;-76
2021/07/15 02:42:34;;;;;;;2.15;0.40;;;;;;;;;;5059279;28;20052;-74
2021/07/15 02:45:00;;;;;;;3.10;0.63;;;;;;;;;;5069431;28;20027;-74
2021/07/15 02:47:27;;;;;;;2.97;0.50;;;;;;;;;;5069884;28;20029;-73
2021/07/15 02:49:55;;;;;;;2.25;0.30;;;;;;;;;;5066407;28;20032;-74
2021/07/15 02:52:21;;;;;;;4.78;0.40;;;;;;;;;;5065205;28;20078;-75
2021/07/15 02:54:47;;;;;;;10.73;0.40;;;;;;;;;;5067419;28;20031;-74
2021/07/15 02:57:16;;;;;;;0.30;0.30;;;;;;;;;;5065595;28;20397;-72
2021/07/15 02:59:46;;;;;;;1.73;0.40;;;;;;;;;;5062810;28;20025;-74
2021/07/15 03:02:26;;;;;;;2.92;0.43;;;;;;;;;;5056501;28;20102;-74
2021/07/15 03:05:12;;;;;;;2.25;0.40;;;;;;;;;;5066002;28;20033;-74
2021/07/15 03:08:04;;;;;;;3.17;0.40;;;;;;;;;;5053068;28;20029;-74
2021/07/15 03:10:31;;;;;;;1.15;0.40;;;;;;;;;;5053883;28;20136;-74
2021/07/15 03:12:57;;;;;;;;;;;;;;;;;;5057639;28;20061;-74
2021/07/15 03:15:24;;;;;;;3.17;0.40;;;;;;;;;;5060782;28;19963;-73
2021/07/15 03:17:51;;;;;;;1.05;0.40;;;;;;;;;;5063876;28;20033;-77
2021/07/15 03:20:30;;;;;;;3.13;0.50;;;;;;;;;;5060644;28;20100;-73
2021/07/15 03:22:57;;;;;;;2.22;0.60;;;;;;;;;;5057424;28;20062;-73
2021/07/15 03:25:24;;;;;;;3.33;0.40;;;;;;;;;;5059585;28;20060;-73
2021/07/15 03:27:53;;;;;;;1.20;0.40;;;;;;;;;;5063157;28;20032;-75
2021/07/15 03:30:20;;;;;;;1.02;0.30;;;;;;;;;;5061781;28;20048;-74
2021/07/15 03:32:48;;;;;;;4.68;0.40;;;;;;;;;;5059453;28;20178;-74
2021/07/15 03:35:17;;;;;;;2.10;0.50;;;;;;;;;;5062901;28;20024;-74
2021/07/15 03:37:47;;;;;;;4.13;0.52;;;;;;;;;;5056963;28;20036;-75
2021/07/15 03:40:15;;;;;;;1.75;0.50;;;;;;;;;;5051422;28;20029;-74
2021/07/15 03:42:41;;;;;;;1.23;0.35;;;;;;;;;;5056741;28;20044;-77
2021/07/15 03:45:09;;;;;;;3.40;0.40;;;;;;;;;;5061769;28;20035;-74
2021/07/15 03:47:36;;;;;;;0.65;0.30;;;;;;;;;;5058943;28;20170;-74
2021/07/15 03:50:02;;;;;;;;;;;;;;;;;;5062156;28;20029;-76
2021/07/15 03:52:28;;;;;;;4.95;0.47;;;;;;;;;;5047551;28;19919;-73
2021/07/15 03:54:55;;;;;;;3.70;0.50;;;;;;;;;;5053457;28;20067;-74
2021/07/15 03:57:21;;;;;;;2.25;0.55;;;;;;;;;;4000850;28;10000771;-76
2021/07/15 03:59:52;;;;;;;2.03;0.33;;;;;;;;;;5043115;28;20052;-74
2021/07/15 04:02:22;;;;;;;5.50;0.47;;;;;;;;;;5060379;28;20261;-75
2021/07/15 04:04:56;;;;;;;1.25;0.45;;;;;;;;;;5062275;28;20032;-74
2021/07/15 04:07:24;;;;;;;2.05;0.43;;;;;;;;;;5058730;28;20501;-76
2021/07/15 04:09:50;;;;;;;9.55;0.80;;;;;;;;;;5056475;28;20633;-74
2021/07/15 04:12:21;;;;;;;2.75;0.50;;;;;;;;;;5064040;28;20027;-74
2021/07/15 04:15:06;;;;;;;3.28;0.40;;;;;;;;;;5062561;28;20020;-75
2021/07/15 04:17:35;;;;;;;2.38;0.30;;;;;;;;;;5065767;28;20385;-75
2021/07/15 04:20:03;;;;;;;2.15;0.50;;;;;;;;;;5062418;28;20032;-74
2021/07/15 04:22:29;;;;;;;5.55;0.60;;;;;;;;;;5050963;28;20032;-74
2021/07/15 04:24:56;;;;;;;2.17;0.30;;;;;;;;;;5065773;28;20036;-74
2021/07/15 04:27:27;;;;;;;1.33;0.45;;;;;;;;;;5060488;28;20513;-72
2021/07/15 04:29:59;;;;;;;3.67;0.52;;;;;;;;;;5063290;28;20032;-74
2021/07/15 04:32:33;;;;;;;4.03;0.68;;;;;;;;;;5067483;28;20036;-73
2021/07/15 04:35:00;;;;;;;2.83;0.52;;;;;;;;;;5060355;28;20090;-74
2021/07/15 04:37:26;;;;;;;3.90;0.50;;;;;;;;;;5052445;28;20058;-74
2021/07/15 04:39:53;;;;;;;3.25;0.50;;;;;;;;;;5057649;28;20029;-74
2021/07/15 04:42:20;;;;;;;1.15;0.50;;;;;;;;;;5066358;28;20571;-75
2021/07/15 04:44:46;;;;;;;1.77;0.43;;;;;;;;;;5059695;28;20112;-74
2021/07/15 04:47:13;;;;;;;1.52;0.40;;;;;;;;;;5053428;28;20100;-74
2021/07/15 04:49:40;;;;;;;3.80;0.43;;;;;;;;;;5062301;28;20041;-75
2021/07/15 04:52:08;;;;;;;0.50;0.40;;;;;;;;;;5049891;28;20489;-75
2021/07/15 04:54:36;;;;;;;1.27;0.50;;;;;;;;;;5054478;28;20047;-74
2021/07/15 04:57:02;;;;;;;1.05;0.45;;;;;;;;;;5053633;28;20490;-73
2021/07/15 04:59:29;;;;;;;1.98;0.52;;;;;;;;;;5050880;28;20017;-75
2021/07/15 05:01:55;;;;;;;2.50;0.45;;;;;;;;;;5056675;28;20020;-73
2021/07/15 05:04:21;;;;;;;5.13;0.57;;;;;;;;;;5069101;28;20094;-75
2021/07/15 05:06:47;;;;;;;1.60;0.60;;;;;;;;;;5061809;28;20068;-74
2021/07/15 05:09:14;;;;;;;2.22;0.60;;;;;;;;;;5064680;28;20364;-74
2021/07/15 05:11:40;;;;;;;;;;;;;;;;;;5054794;28;20028;-74
2021/07/15 05:14:06;;;;;;;2.05;0.50;;;;;;;;;;5063321;28;20011;-74
2021/07/15 05:16:32;;;;;;;1.83;0.50;;;;;;;;;;5055891;28;20516;-75
2021/07/15 05:18:58;;;;;;;3.60;0.60;;;;;;;;;;5052117;28;20029;-74
2021/07/15 05:21:24;;;;;;;1.03;0.30;;;;;;;;;;5058949;28;20430;-76
2021/07/15 05:23:50;;;;;;;1.00;0.37;;;;;;;;;;5049389;28;20048;-78
2021/07/15 05:26:18;;;;;;;1.38;0.50;;;;;;;;;;5057563;28;20443;-80
2021/07/15 05:28:45;;;;;;;2.17;0.60;;;;;;;;;;5056880;28;20028;-75
2021/07/15 05:31:11;;;;;;;3.55;0.60;;;;;;;;;;5056299;28;20029;-78
2021/07/15 05:33:37;;;;;;;1.80;0.50;;;;;;;;;;5056051;28;20032;-77
2021/07/15 05:36:03;;;;;;;1.63;0.50;;;;;;;;;;5069590;28;20473;-78
2021/07/15 05:38:29;;;;;;;3.28;0.52;;;;;;;;;;5064487;28;20021;-77
2021/07/15 05:40:55;;;;;;;3.03;0.40;;;;;;;;;;5055663;28;20033;-78
2021/07/15 05:43:21;;;;;;;1.85;0.50;;;;;;;;;;5062085;28;20506;-77
2021/07/15 05:45:47;;;;;;;1.97;0.60;;;;;;;;;;5052774;28;20025;-78
2021/07/15 05:48:13;;;;;;;1.90;0.47;;;;;;;;;;5053468;28;20062;-76
2021/07/15 05:50:39;;;;;;;1.17;0.50;;;;;;;;;;5053917;28;20521;-74
2021/07/15 05:53:05;;;;;;;6.00;1.10;;;;;;;;;;5044745;28;20611;-75
2021/07/15 05:55:31;;;;;;;11.77;1.63;;;;;;;;;;5054771;28;20025;-76
2021/07/15 05:57:57;;;;;;;5.97;0.90;;;;;;;;;;5052874;28;20556;-78
2021/07/15 06:00:23;;;;;;;4.85;1.27;;;;;;;;;;5063998;28;20020;-75
2021/07/15 06:02:49;;;;;;;6.80;0.90;;;;;;;;;;5067528;28;20493;-74
2021/07/15 06:05:15;;;;;;;2.93;0.90;;;;;;;;;;5056766;28;20063;-76
2021/07/15 06:07:41;;;;;;;8.40;1.50;;;;;;;;;;5043320;28;20079;-75
2021/07/15 06:10:08;;;;;;;4.00;1.13;;;;;;;;;;5059733;28;20037;-74
2021/07/15 06:12:35;;;;;;;2.92;0.80;;;;;;;;;;5034078;28;20030;-75
2021/07/15 06:15:01;;;;;;;3.28;0.85;;;;;;;;;;5036132;28;20021;-75
2021/07/15 06:17:28;;;;;;;2.83;0.90;;;;;;;;;;5035349;28;20026;-75
2021/07/15 06:19:55;;;;;;;;;;;;;;;;;;5041526;28;20036;-75
2021/07/15 06:22:22;;;;;;;2.53;0.60;;;;;;;;;;5051611;28;20277;-74
2021/07/15 06:24:55;;;;;;;;;;;;;;;;;;5074447;28;20462;-75
2021/07/15 06:27:22;;;;;;;6.65;1.00;;;;;;;;;;5052671;28;19916;-73
2021/07/15 06:29:49;;;;;;;;;;;;;;;;;;5053827;28;20033;-77
2021/07/15 06:32:15;;;;;;;3.97;0.80;;;;;;;;;;5076824;28;19931;-76
2021/07/15 06:34:42;;;;;;;2.87;0.80;;;;;;;;;;5066694;28;20028;-76
2021/07/15 06:37:08;;;;;;;;;;;;;;;;;;5069722;28;20051;-75
2021/07/15 06:39:34;;;;;;;5.85;1.10;;;;;;;;;;5085119;28;19964;-80
2021/07/15 06:42:00;;;;;;;2.57;0.70;;;;;;;;;;5072244;28;20088;-74
2021/07/15 06:44:27;;;;;;;5.15;0.80;;;;;;;;;;5063021;28;20253;-74
2021/07/15 06:46:53;;;;;;;3.40;0.70;;;;;;;;;;5066190;28;20462;-74
2021/07/15 06:49:19;;;;;;;1.60;0.70;;;;;;;;;;5063730;28;20374;-75
2021/07/15 06:51:45;;;;;;;0.85;0.70;;;;;;;;;;5058315;28;20037;-75
2021/07/15 06:54:12;;;;;;;3.10;0.80;;;;;;;;;;5053913;28;20033;-76
2021/07/15 06:56:38;;;;;;;3.10;0.82;;;;;;;;;;5062275;28;20246;-75
2021/07/15 06:59:04;;;;;;;2.42;0.82;;;;;;;;;;5062060;28;20037;-77
2021/07/15 07:01:30;;;;;;;6.37;1.10;;;;;;;;;;5057398;28;20040;-75
2021/07/15 07:03:56;;;;;;;3.15;0.80;;;;;;;;;;5060618;28;20021;-76
2021/07/15 07:06:28;;;;;;;6.13;1.07;;;;;;;;;;5064898;28;20035;-74
2021/07/15 07:08:54;;;;;;;5.15;0.80;;;;;;;;;;5061560;28;20813;-75
2021/07/15 07:11:20;;;;;;;4.22;0.60;;;;;;;;;;5055400;28;20057;-73
2021/07/15 07:13:47;;;;;;;2.40;0.70;;;;;;;;;;5054720;28;20363;-76
2021/07/15 07:16:13;;;;;;;3.30;0.80;;;;;;;;;;5056815;28;20023;-75
2021/07/15 07:18:39;;;;;;;2.45;0.90;;;;;;;;;;5057088;28;20432;-76
2021/07/15 07:21:05;;;;;;;5.03;1.10;;;;;;;;;;5060985;28;20115;-76
2021/07/15 07:23:31;;;;;;;3.53;0.82;;;;;;;;;;5057806;28;20029;-76
2021/07/15 07:25:57;;;;;;;4.37;0.63;;;;;;;;;;5051326;28;20488;-76
2021/07/15 07:28:26;;;;;;;1.65;0.73;;;;;;;;;;5058327;28;20028;-76
2021/07/15 07:30:53;;;;;;;3.55;0.70;;;;;;;;;;5055564;28;20131;-76
2021/07/15 07:33:19;;;;;;;2.30;0.50;;;;;;;;;;5061180;28;20017;-76
2021/07/15 07:35:46;;;;;;;8.90;1.80;;;;;;;;;;5063576;28;20100;-76
2021/07/15 07:38:13;;;;;;;3.58;1.00;;;;;;;;;;5069439;28;20035;-74
2021/07/15 07:40:39;;;;;;;;;;;;;;;;;;5054654;28;20040;-75
2021/07/15 07:43:05;;;;;;;0.82;0.40;;;;;;;;;;4712251;28;10001124;-75
2021/07/15 07:45:31;;;;;;;3.47;0.70;;;;;;;;;;4692465;28;10000433;-77
2021/07/15 07:47:58;;;;;;;2.85;0.65;;;;;;;;;;5037666;28;20353;-77
2021/07/15 07:50:25;;;;;;;3.60;0.73;;;;;;;;;;5039912;28;20035;-76
2021/07/15 07:52:52;;;;;;;;;;;;;;;;;;5041240;28;20277;-74
2021/07/15 07:55:19;;;;;;;3.13;0.80;;;;;;;;;;5037362;28;19982;-76
2021/07/15 07:57:45;;;;;;;;;;;;;;;;;;5039154;28;20803;-76
2021/07/15 08:00:12;;;;;;;2.08;0.85;;;;;;;;;;5039471;28;19934;-75
2021/07/15 08:02:39;;;;;;;3.50;0.95;;;;;;;;;;5035786;28;20117;-78
2021/07/15 08:05:05;;;;;;;;;;;;;;;;;;5043174;28;20044;-76
2021/07/15 08:07:32;;;;;;;1.25;0.57;;;;;;;;;;5036258;28;19909;-76
2021/07/15 08:09:59;;;;;;;4.50;0.60;;;;;;;;;;5038403;28;20024;-75
2021/07/15 08:12:25;;;;;;;1.05;0.50;;;;;;;;;;5034130;28;20110;-78
2021/07/15 08:14:51;;;;;;;1.02;0.50;;;;;;;;;;5035119;28;20017;-78
2021/07/15 08:17:17;;;;;;;1.70;0.50;;;;;;;;;;5034808;28;20022;-76
2021/07/15 08:19:43;;;;;;;0.77;0.47;;;;;;;;;;5036649;28;20022;-74
2021/07/15 08:22:09;;;;;;;3.50;0.60;;;;;;;;;;5035891;28;20033;-73
2021/07/15 08:24:35;;;;;;;2.60;0.80;;;;;;;;;;5034519;28;20056;-75
2021/07/15 08:27:01;;;;;;;1.73;0.50;;;;;;;;;;5036957;28;20084;-75
2021/07/15 08:29:28;;;;;;;2.38;0.60;;;;;;;;;;5035097;28;20029;-74
2021/07/15 08:31:54;;;;;;;6.40;0.77;;;;;;;;;;5036560;28;20044;-74
2021/07/15 08:34:20;;;;;;;2.63;1.03;;;;;;;;;;5036873;28;20437;-73
2021/07/15 08:36:50;;;;;;;7.88;1.77;;;;;;;;;;5037003;28;20341;-77
2021/07/15 08:39:16;;;;;;;4.30;1.20;;;;;;;;;;5034818;28;20638;-73
2021/07/15 08:41:44;;;;;;;4.35;1.23;;;;;;;;;;5042844;28;20033;-73
2021/07/15 08:44:13;;;;;;;3.10;0.80;;;;;;;;;;5036413;28;20013;-77
2021/07/15 08:46:40;;;;;;;4.10;0.80;;;;;;;;;;5035638;28;20052;-73
2021/07/15 08:49:07;;;;;;;2.78;0.80;;;;;;;;;;5036025;28;20025;-74
2021/07/15 08:51:33;;;;;;;;;;;;;;;;;;5036163;28;20032;-75
2021/07/15 08:53:59;;;;;;;2.85;0.70;;;;;;;;;;5032913;28;20457;-78
2021/07/15 08:56:37;;;;;;;5.07;0.90;;;;;;;;;;5035688;28;20033;-74
2021/07/15 08:59:12;;;;;;;1.85;0.60;;;;;;;;;;5036335;28;20033;-75
2021/07/15 09:01:38;;;;;;;2.53;0.80;;;;;;;;;;5035652;28;20028;-73
2021/07/15 09:04:04;;;;;;;1.65;0.55;;;;;;;;;;5037279;28;20322;-75
2021/07/15 09:06:30;;;;;;;0.80;0.70;;;;;;;;;;5038680;28;20036;-73
2021/07/15 09:08:57;;;;;;;0.73;0.57;;;;;;;;;;5034607;28;20681;-75
2021/07/15 09:11:23;;;;;;;1.53;0.70;;;;;;;;;;5038330;28;20043;-76
2021/07/15 09:13:49;;;;;;;1.90;0.63;;;;;;;;;;5038868;28;21075;-73
2021/07/15 09:16:16;;;;;;;0.90;0.50;;;;;;;;;;5038051;28;20033;-76
2021/07/15 09:19:00;;;;;;;1.08;0.73;;;;;;;;;;5038444;28;20021;-75
2021/07/15 09:21:28;;;;;;;1.23;0.50;;;;;;;;;;5037588;28;20094;-76
2021/07/15 09:23:54;;;;;;;1.35;0.60;;;;;;;;;;5036082;28;20041;-75
2021/07/15 09:26:20;;;;;;;1.58;0.63;;;;;;;;;;5035676;28;20306;-77
2021/07/15 09:28:47;;;;;;;0.50;0.50;;;;;;;;;;5036994;28;20025;-75
2021/07/15 09:31:14;;;;;;;;;;;;;;;;;;5040555;28;20048;-75
2021/07/15 09:33:40;;;;;;;0.73;0.50;;;;;;;;;;5037370;28;19987;-74
2021/07/15 09:36:11;;;;;;;1.33;0.60;;;;;;;;;;5032767;28;20025;-75
2021/07/15 09:38:42;;;;;;;1.90;0.57;;;;;;;;;;5038083;28;20497;-77
2021/07/15 09:41:08;;;;;;;1.38;0.55;;;;;;;;;;5036079;28;20033;-76
2021/07/15 09:43:36;;;;;;;5.53;1.20;;;;;;;;;;5038980;28;20135;-76
2021/07/15 09:46:14;;;;;;;6.40;1.35;;;;;;;;;;5041462;28;20101;-74
2021/07/15 09:48:45;;;;;;;5.53;1.05;;;;;;;;;;5046117;28;20101;-77
2021/07/15 09:51:13;;;;;;;4.90;0.90;;;;;;;;;;5044450;28;20060;-74
2021/07/15 09:53:42;;;;;;;4.18;0.90;;;;;;;;;;5038687;28;20024;-74
2021/07/15 09:56:08;;;;;;;3.22;0.68;;;;;;;;;;5037388;28;20716;-72
2021/07/15 09:58:35;;;;;;;2.38;0.70;;;;;;;;;;5039906;28;20043;-73
2021/07/15 10:01:01;;;;;;;;;;;;;;;;;;5039386;28;20219;-74
2021/07/15 10:03:33;;;;;;;4.38;0.90;;;;;;;;;;5038206;28;19915;-77
2021/07/15 10:06:02;;;;;;;9.45;1.70;;;;;;;;;;5041387;28;20021;-73
2021/07/15 10:08:32;;;;;;;6.20;1.38;;;;;;;;;;5043185;28;20021;-75
2021/07/15 10:11:18;;;;;;;4.97;1.60;;;;;;;;;;5043256;28;20119;-73
2021/07/15 10:13:45;;;;;;;11.17;2.70;;;;;;;;;;5042096;28;20036;-76
2021/07/15 10:16:11;;;;;;;;;;;;;;;;;;5043468;28;20258;-75
2021/07/15 10:18:41;;;;;;;10.23;3.10;;;;;;;;;;5043183;28;19909;-74
2021/07/15 10:21:08;;;;;;;20.63;5.18;;;;;;;;;;5038813;28;20017;-76
2021/07/15 10:23:36;;;;;;;23.60;5.88;;;;;;;;;;5039390;28;20033;-74
2021/07/15 10:26:02;;;;;;;16.30;4.30;;;;;;;;;;5037600;28;20096;-75
2021/07/15 10:28:29;;;;;;;24.60;7.18;;;;;;;;;;5040485;28;20119;-75
2021/07/15 10:30:58;;;;;;;17.90;5.60;;;;;;;;;;5039092;28;20458;-74
2021/07/15 10:33:25;;;;;;;9.95;2.80;;;;;;;;;;5041910;28;20834;-72
2021/07/15 10:35:54;;;;;;;3.28;1.33;;;;;;;;;;5043055;28;20017;-72
2021/07/15 10:38:21;;;;;;;6.25;2.50;;;;;;;;;;5043167;28;20387;-74
2021/07/15 10:40:46;;;;;;;;;;;;;;;;;;5038869;28;20017;-74
2021/07/15 10:43:13;;;;;;;11.23;3.33;;;;;;;;;;5038672;28;19912;-75
2021/07/15 10:45:40;;;;;;;9.63;3.00;;;;;;;;;;5038904;28;20029;-75
2021/07/15 10:48:06;;;;;;;;;;;;;;;;;;5038269;28;20037;-75
2021/07/15 10:50:32;;;;;;;5.60;2.13;;;;;;;;;;5039436;28;19917;-75
2021/07/15 10:52:58;;;;;;;10.50;2.88;;;;;;;;;;5039061;28;20033;-73
2021/07/15 10:55:25;;;;;;;8.60;3.15;;;;;;;;;;5038470;28;20363;-75
2021/07/15 10:57:53;;;;;;;8.43;3.35;;;;;;;;;;5037115;28;20498;-73
2021/07/15 11:00:22;;;;;;;6.32;1.50;;;;;;;;;;5037380;28;20109;-76
2021/07/15 11:03:07;;;;;;;4.15;1.58;;;;;;;;;;5038018;28;20052;-74
2021/07/15 11:05:33;;;;;;;3.55;1.88;;;;;;;;;;5037103;28;20697;-75
2021/07/15 11:07:59;;;;;;;4.18;1.58;;;;;;;;;;5036755;28;20033;-76
2021/07/15 11:10:25;;;;;;;6.67;1.60;;;;;;;;;;5041139;28;20040;-76
2021/07/15 11:13:00;;;;;;;5.20;1.83;;;;;;;;;;5041780;28;20025;-74
2021/07/15 11:15:45;;;;;;;3.58;1.40;;;;;;;;;;5039222;28;20036;-73
2021/07/15 11:18:31;;;;;;;2.90;0.85;;;;;;;;;;5038501;28;20048;-76
2021/07/15 11:21:17;;;;;;;4.45;0.90;;;;;;;;;;5037117;28;20029;-76
2021/07/15 11:23:43;;;;;;;2.00;0.65;;;;;;;;;;5037809;28;20028;-76
2021/07/15 11:26:28;;;;;;;0.82;0.60;;;;;;;;;;5038518;28;20021;-74
2021/07/15 11:28:54;;;;;;;0.95;0.70;;;;;;;;;;5035765;28;20022;-75
2021/07/15 11:31:47;;;;;;;3.53;1.10;;;;;;;;;;5038485;28;20033;-73
2021/07/15 11:34:31;;;;;;;5.10;0.90;;;;;;;;;;5035486;28;20266;-74
2021/07/15 11:37:16;;;;;;;1.55;0.80;;;;;;;;;;5036274;28;20204;-73
2021/07/15 11:39:42;;;;;;;2.10;1.20;;;;;;;;;;5037469;28;20024;-74
2021/07/15 11:42:18;;;;;;;1.27;0.90;;;;;;;;;;5036727;28;20028;-75
2021/07/15 11:45:03;;;;;;;2.90;1.00;;;;;;;;;;5037137;28;20414;-76
2021/07/15 11:47:54;;;;;;;1.67;1.00;;;;;;;;;;5037785;28;20728;-75
2021/07/15 11:50:39;;;;;;;1.45;0.90;;;;;;;;;;5038636;28;20163;-73
2021/07/15 11:53:14;;;;;;;3.08;1.10;;;;;;;;;;5040344;28;20030;-75
2021/07/15 11:55:41;;;;;;;2.75;0.93;;;;;;;;;;5037323;28;20100;-73
2021/07/15 11:58:07;;;;;;;2.97;0.93;;;;;;;;;;5037370;28;20093;-72
2021/07/15 12:00:33;;;;;;;1.35;0.70;;;;;;;;;;5037660;28;20416;-72
2021/07/15 12:02:59;;;;;;;0.90;0.60;;;;;;;;;;5037825;28;20102;-75
2021/07/15 12:05:30;;;;;;;1.70;0.75;;;;;;;;;;5037973;28;20486;-74
2021/07/15 12:08:04;;;;;;;2.78;0.90;;;;;;;;;;5035974;28;20160;-73
2021/07/15 12:10:33;;;;;;;2.53;0.70;;;;;;;;;;5037611;28;20072;-75
2021/07/15 12:13:00;;;;;;;2.60;1.00;;;;;;;;;;5037755;28;20025;-75
2021/07/15 12:15:27;;;;;;;1.50;0.90;;;;;;;;;;5038316;28;20021;-74
2021/07/15 12:17:57;;;;;;;1.25;0.70;;;;;;;;;;5036578;28;20056;-76
2021/07/15 12:20:25;;;;;;;0.70;0.70;;;;;;;;;;5037037;28;20441;-77
2021/07/15 12:22:52;;;;;;;1.25;0.90;;;;;;;;;;5038596;28;20021;-76
2021/07/15 12:25:20;;;;;;;1.08;0.77;;;;;;;;;;5036623;28;20048;-76
2021/07/15 12:27:47;;;;;;;1.13;0.63;;;;;;;;;;5037395;28;20418;-73
2021/07/15 12:30:14;;;;;;;1.85;0.98;;;;;;;;;;5041904;28;20461;-76
2021/07/15 12:32:51;;;;;;;2.35;0.73;;;;;;;;;;5038166;28;20036;-75
2021/07/15 12:35:17;;;;;;;1.02;0.93;;;;;;;;;;5034991;28;20037;-77
2021/07/15 12:37:43;;;;;;;2.05;0.90;;;;;;;;;;5036247;28;20379;-78
2021/07/15 12:40:09;;;;;;;1.23;0.70;;;;;;;;;;5037229;28;20028;-75
2021/07/15 12:42:36;;;;;;;1.00;0.80;;;;;;;;;;5035592;28;20090;-79
2021/07/15 12:45:15;;;;;;;3.33;0.82;;;;;;;;;;5034136;28;20029;-78
2021/07/15 12:47:42;;;;;;;1.05;0.90;;;;;;;;;;5036364;28;20720;-79
2021/07/15 12:50:08;;;;;;;2.58;1.00;;;;;;;;;;5040353;28;20044;-78
2021/07/15 12:52:34;;;;;;;2.53;0.90;;;;;;;;;;5030251;28;20029;-75
2021/07/15 12:55:00;;;;;;;6.50;1.30;;;;;;;;;;5037580;28;20035;-75
2021/07/15 12:57:27;;;;;;;1.58;1.05;;;;;;;;;;5038603;28;20104;-76
2021/07/15 12:59:53;;;;;;;4.40;0.88;;;;;;;;;;5041150;28;20036;-75
2021/07/15 13:02:19;;;;;;;;;;;;;;;;;;5037103;28;20036;-76
2021/07/15 13:04:45;;;;;;;2.07;0.70;;;;;;;;;;5037203;28;19959;-79
2021/07/15 13:07:21;;;;;;;2.40;0.97;;;;;;;;;;5042167;28;20754;-73
2021/07/15 13:10:06;;;;;;;2.08;0.70;;;;;;;;;;5046416;28;20665;-75
2021/07/15 13:15:17;;;;;;;1.20;0.90;;;;;;;;;;5042062;28;20039;-76
2021/07/15 13:17:50;;;;;;;3.30;0.80;;;;;;;;;;5042162;28;20025;-74
2021/07/15 13:20:20;;;;;;;2.92;1.00;;;;;;;;;;5046128;28;20040;-75
2021/07/15 13:22:48;;;;;;;5.30;0.90;;;;;;;;;;5045433;28;20025;-77
2021/07/15 13:25:15;;;;;;;2.78;0.90;;;;;;;;;;5044998;28;20411;-77
2021/07/15 13:27:43;;;;;;;;;;;;;;;;;;5048741;28;20479;-76
2021/07/15 13:30:10;;;;;;;2.05;0.80;;;;;;;;;;5044458;28;19915;-77
2021/07/15 13:32:36;;;;;;;2.42;1.00;;;;;;;;;;5043593;28;20068;-81
2021/07/15 13:35:03;;;;;;;0.80;0.80;;;;;;;;;;5041580;28;20028;-79
2021/07/15 13:37:30;;;;;;;0.90;0.90;;;;;;;;;;5054274;28;20036;-77
2021/07/15 13:39:56;;;;;;;;;;;;;;;;;;5048544;28;21472;-74
2021/07/15 13:42:30;;;;;;;0.85;0.77;;;;;;;;;;5046816;28;19917;-76
2021/07/15 13:45:00;;;;;;;1.23;0.80;;;;;;;;;;5050577;28;20095;-76
2021/07/15 13:47:30;;;;;;;0.88;0.68;;;;;;;;;;5044581;28;20516;-75
2021/07/15 13:50:03;;;;;;;2.90;1.02;;;;;;;;;;5046445;28;20029;-75
2021/07/15 13:52:30;;;;;;;1.83;0.80;;;;;;;;;;5033453;28;20433;-74
2021/07/15 13:55:01;;;;;;;10.30;1.33;;;;;;;;;;5044966;28;20104;-75
2021/07/15 13:57:27;;;;;;;2.58;0.95;;;;;;;;;;5042093;28;20025;-76
2021/07/15 13:59:53;;;;;;;1.42;0.90;;;;;;;;;;5064923;28;20075;-74
2021/07/15 14:02:19;;;;;;;4.75;0.85;;;;;;;;;;5057140;28;20047;-74
2021/07/15 14:04:46;;;;;;;1.70;0.97;;;;;;;;;;5055969;28;20030;-77
2021/07/15 14:07:17;;;;;;;1.38;0.77;;;;;;;;;;5054100;28;20123;-74
2021/07/15 14:09:47;;;;;;;1.85;1.00;;;;;;;;;;5051186;28;20033;-76
2021/07/15 14:12:16;;;;;;;2.67;0.82;;;;;;;;;;5041283;28;20036;-76
2021/07/15 14:14:52;;;;;;;1.85;0.60;;;;;;;;;;5043723;28;20021;-75
2021/07/15 14:17:21;;;;;;;;;;;;;;;;;;5046058;28;20021;-74
2021/07/15 14:19:47;;;;;;;1.80;0.90;;;;;;;;;;5044489;28;19915;-73
2021/07/15 14:22:14;;;;;;;0.80;0.80;;;;;;;;;;5041075;28;20012;-74
2021/07/15 14:24:40;;;;;;;2.80;0.88;;;;;;;;;;5040914;28;20120;-79
2021/07/15 14:27:06;;;;;;;0.87;0.70;;;;;;;;;;5038828;28;20033;-79
2021/07/15 14:29:32;;;;;;;2.30;0.90;;;;;;;;;;5041102;28;20029;-74
2021/07/15 14:31:58;;;;;;;1.10;0.90;;;;;;;;;;5044361;28;20045;-76
2021/07/15 14:34:25;;;;;;;1.38;0.85;;;;;;;;;;5041562;28;20029;-76
2021/07/15 14:36:52;;;;;;;2.67;0.80;;;;;;;;;;5043084;28;20595;-77
2021/07/15 14:39:23;;;;;;;1.17;0.70;;;;;;;;;;5041089;28;20435;-76
2021/07/15 14:41:50;;;;;;;2.42;0.90;;;;;;;;;;5041056;28;20072;-76
2021/07/15 14:44:16;;;;;;;0.88;0.80;;;;;;;;;;5043391;28;20029;-76
2021/07/15 14:46:42;;;;;;;2.15;1.00;;;;;;;;;;5045879;28;20094;-77
2021/07/15 14:49:09;;;;;;;1.00;0.90;;;;;;;;;;5052174;28;20036;-73
2021/07/15 14:51:35;;;;;;;1.07;0.83;;;;;;;;;;5039235;28;20030;-73
2021/07/15 14:54:01;;;;;;;2.25;1.00;;;;;;;;;;5042290;28;20036;-79
2021/07/15 14:56:27;;;;;;;0.77;0.63;;;;;;;;;;5041461;28;20025;-76
2021/07/15 14:59:12;;;;;;;1.15;0.90;;;;;;;;;;5045427;28;20043;-74
2021/07/15 15:01:39;;;;;;;1.38;0.80;;;;;;;;;;5045104;28;20056;-75